| time (UTC) | temp C | wind direction | speed KPH | gust KPH | rain 1hr cm | rain 24hr cm | rain mn cm | humidity % | barometer mb |
| 20260906085504 | 11 | 344 | 4.8 | 19.3 | 0.00 | 0.03 | 0.03 | 67 | 1007.3 |
| 20260906085005 | 11 | 347 | 6.4 | 19.3 | 0.00 | 0.03 | 0.03 | 65 | 1007.2 |
| 20260906084503 | 11 | 350 | 4.8 | 16.1 | 0.00 | 0.03 | 0.03 | 66 | 1007.1 |
| 20260906084005 | 11 | 340 | 4.8 | 16.1 | 0.00 | 0.03 | 0.03 | 65 | 1007.1 |
| 20260906083503 | 11 | 349 | 6.4 | 29.0 | 0.00 | 0.03 | 0.03 | 66 | 1007.1 |
| 20260906083005 | 11 | 3 | 6.4 | 29.0 | 0.00 | 0.05 | 0.03 | 64 | 1007.1 |
| 20260906082503 | 11 | 352 | 4.8 | 16.1 | 0.00 | 0.05 | 0.03 | 65 | 1007.0 |
| 20260906082005 | 10 | 346 | 4.8 | 16.1 | 0.00 | 0.05 | 0.03 | 68 | 1007.0 |
| 20260906081505 | 10 | 347 | 4.8 | 16.1 | 0.00 | 0.05 | 0.03 | 68 | 1007.0 |
| 20260906081005 | 10 | 332 | 4.8 | 16.1 | 0.00 | 0.05 | 0.03 | 68 | 1006.9 |
| 20260906080504 | 10 | 338 | 6.4 | 17.7 | 0.00 | 0.05 | 0.03 | 68 | 1006.9 |
| 20260906080005 | 10 | 352 | 4.8 | 17.7 | 0.00 | 0.05 | 0.03 | 68 | 1006.9 |
| 20260906075504 | 10 | 357 | 4.8 | 16.1 | 0.00 | 0.05 | 0.03 | 69 | 1006.9 |
| 20260906075006 | 10 | 339 | 4.8 | 14.5 | 0.00 | 0.05 | 0.03 | 72 | 1006.7 |
| 20260906074505 | 10 | 322 | 4.8 | 14.5 | 0.00 | 0.05 | 0.03 | 72 | 1006.6 |
| 20260906074004 | 9 | 332 | 3.2 | 14.5 | 0.00 | 0.05 | 0.03 | 74 | 1006.5 |
| 20260906073503 | 9 | 342 | 3.2 | 14.5 | 0.00 | 0.05 | 0.03 | 76 | 1006.6 |
| 20260906072504 | 8 | 326 | 4.8 | 24.1 | 0.00 | 0.05 | 0.03 | 75 | 1006.5 |
| 20260906072005 | 9 | 313 | 4.8 | 24.1 | 0.00 | 0.05 | 0.03 | 75 | 1006.4 |
| 20260906071503 | 9 | 318 | 4.8 | 16.1 | 0.00 | 0.05 | 0.03 | 75 | 1006.4 |
| 20260906071005 | 10 | 338 | 4.8 | 16.1 | 0.00 | 0.05 | 0.03 | 74 | 1006.3 |
| 20260906070504 | 9 | 350 | 4.8 | 16.1 | 0.00 | 0.05 | 0.03 | 75 | 1006.2 |
| 20260906070004 | 9 | 359 | 4.8 | 17.7 | 0.00 | 0.05 | 0.03 | 75 | 1006.2 |
| 20260906065505 | 9 | 356 | 4.8 | 17.7 | 0.00 | 0.05 | 0.03 | 76 | 1006.2 |
| 20260906065003 | 9 | 342 | 3.2 | 19.3 | 0.00 | 0.05 | 0.03 | 78 | 1006.1 |
| 20260906064505 | 9 | 341 | 3.2 | 19.3 | 0.00 | 0.05 | 0.03 | 79 | 1006.0 |
| 20260906063505 | 8 | 329 | 3.2 | 12.9 | 0.00 | 0.05 | 0.03 | 81 | 1005.9 |
| 20260906062505 | 8 | 342 | 3.2 | 12.9 | 0.00 | 0.05 | 0.03 | 82 | 1005.7 |
| 20260906062004 | 8 | 329 | 1.6 | 9.7 | 0.00 | 0.05 | 0.03 | 83 | 1005.6 |
| 20260906061505 | 8 | 328 | 1.6 | 9.7 | 0.00 | 0.05 | 0.03 | 83 | 1005.6 |
| 20260906061003 | 8 | 301 | 1.6 | 8.0 | 0.00 | 0.05 | 0.03 | 84 | 1005.6 |
| 20260906055503 | 8 | 314 | 1.6 | 4.8 | 0.00 | 0.05 | 0.03 | 87 | 1005.4 |
| 20260906055005 | 8 | 336 | 1.6 | 4.8 | 0.00 | 0.05 | 0.03 | 86 | 1005.4 |
| 20260906054005 | 7 | 328 | 1.6 | 4.8 | 0.00 | 0.05 | 0.03 | 87 | 1005.2 |
| 20260906053503 | 7 | 334 | 1.6 | 4.8 | 0.00 | 0.05 | 0.03 | 88 | 1005.2 |
| 20260906053005 | 7 | 345 | 1.6 | 6.4 | 0.00 | 0.08 | 0.03 | 88 | 1005.1 |
| 20260906052504 | 7 | 316 | 1.6 | 9.7 | 0.00 | 0.08 | 0.03 | 89 | 1005.1 |
| 20260906052005 | 7 | 309 | 1.6 | 9.7 | 0.00 | 0.08 | 0.03 | 89 | 1005.0 |
| 20260906051005 | 7 | 328 | 0.0 | 4.8 | 0.00 | 0.08 | 0.03 | 91 | 1004.9 |
| 20260906050503 | 7 | 306 | 1.6 | 8.0 | 0.00 | 0.08 | 0.03 | 91 | 1004.9 |
| 20260906050005 | 7 | 304 | 1.6 | 8.0 | 0.00 | 0.08 | 0.03 | 91 | 1004.8 |
| 20260906045504 | 7 | 10 | 0.0 | 4.8 | 0.00 | 0.08 | 0.03 | 91 | 1004.8 |
| 20260906045003 | 6 | 342 | 0.0 | 4.8 | 0.00 | 0.08 | 0.03 | 91 | 1004.8 |
| 20260906044505 | 6 | 320 | 0.0 | 4.8 | 0.00 | 0.08 | 0.03 | 91 | 1004.7 |
| 20260906044003 | 6 | 322 | 0.0 | 4.8 | 0.00 | 0.08 | 0.03 | 91 | 1004.7 |
| 20260906043504 | 7 | 332 | 0.0 | 4.8 | 0.00 | 0.08 | 0.03 | 91 | 1004.5 |
| 20260906043005 | 7 | 319 | 0.0 | 4.8 | 0.00 | 0.08 | 0.03 | 91 | 1004.5 |
| 20260906041003 | 7 | 294 | 0.0 | 3.2 | 0.03 | 0.08 | 0.03 | 92 | 1004.2 |
| 20260906040505 | 7 | 298 | 1.6 | 9.7 | 0.03 | 0.08 | 0.03 | 93 | 1004.2 |
| 20260906040004 | 7 | 324 | 1.6 | 9.7 | 0.03 | 0.08 | 0.03 | 93 | 1004.1 |
| 20260906035505 | 6 | 308 | 1.6 | 4.8 | 0.03 | 0.08 | 0.03 | 94 | 1004.2 |
| 20260906034505 | 6 | 284 | 1.6 | 9.7 | 0.03 | 0.08 | 0.03 | 94 | 1004.0 |
| 20260906033503 | 6 | 288 | 0.0 | 3.2 | 0.03 | 0.08 | 0.03 | 95 | 1004.0 |
| 20260906033005 | 6 | 293 | 0.0 | 4.8 | 0.03 | 0.08 | 0.03 | 95 | 1003.9 |
| 20260906032503 | 6 | 317 | 0.0 | 4.8 | 0.03 | 0.08 | 0.03 | 95 | 1003.9 |
| 20260906032003 | 6 | 332 | 0.0 | 3.2 | 0.03 | 0.08 | 0.03 | 95 | 1003.9 |
| 20260906031505 | 6 | 333 | 0.0 | 3.2 | 0.00 | 0.05 | 0.00 | 95 | 1003.8 |
| 20260906031004 | 6 | 333 | 0.0 | 1.6 | 0.00 | 0.05 | 0.00 | 95 | 1003.8 |
| 20260906030503 | 6 | 282 | 1.6 | 4.8 | 0.00 | 0.05 | 0.00 | 95 | 1003.8 |
| 20260906030005 | 6 | 283 | 1.6 | 4.8 | 0.00 | 0.05 | 0.00 | 95 | 1003.7 |
| 20260906025503 | 6 | 290 | 0.0 | 6.4 | 0.00 | 0.05 | 0.00 | 95 | 1003.7 |
| 20260906025004 | 6 | 284 | 0.0 | 6.4 | 0.00 | 0.05 | 0.00 | 95 | 1003.6 |
| 20260906024004 | 6 | 298 | 0.0 | 4.8 | 0.00 | 0.05 | 0.00 | 95 | 1003.5 |
| 20260906023005 | 6 | 277 | 0.0 | 4.8 | 0.00 | 0.05 | 0.00 | 95 | 1003.5 |
| 20260906022504 | 6 | 271 | 0.0 | 4.8 | 0.00 | 0.05 | 0.00 | 95 | 1003.4 |
| 20260906022004 | 7 | 270 | 0.0 | 4.8 | 0.00 | 0.05 | 0.00 | 95 | 1003.5 |
| 20260906021505 | 7 | 271 | 0.0 | 4.8 | 0.00 | 0.05 | 0.00 | 95 | 1003.5 |
| 20260906021004 | 7 | 270 | 0.0 | 3.2 | 0.00 | 0.05 | 0.00 | 95 | 1003.3 |
| 20260906020503 | 7 | 293 | 0.0 | 3.2 | 0.00 | 0.05 | 0.00 | 95 | 1003.4 |
| 20260906015503 | 7 | 297 | 0.0 | 4.8 | 0.00 | 0.05 | 0.00 | 96 | 1003.4 |
| 20260906015004 | 7 | 291 | 0.0 | 4.8 | 0.00 | 0.05 | 0.00 | 96 | 1003.3 |
| 20260906014505 | 7 | 293 | 0.0 | 4.8 | 0.00 | 0.05 | 0.00 | 96 | 1003.2 |
| 20260906014003 | 7 | 302 | 0.0 | 3.2 | 0.00 | 0.05 | 0.00 | 96 | 1003.2 |
| 20260906013504 | 7 | 330 | 0.0 | 3.2 | 0.00 | 0.05 | 0.00 | 96 | 1003.1 |
| 20260906013005 | 7 | 309 | 0.0 | 4.8 | 0.00 | 0.05 | 0.00 | 96 | 1003.1 |
| 20260906012504 | 7 | 279 | 0.0 | 4.8 | 0.00 | 0.05 | 0.00 | 96 | 1003.0 |
| 20260906012005 | 7 | 0 | 0.0 | 0.0 | 0.00 | 0.05 | 0.00 | 95 | 1002.9 |
| 20260906011504 | 7 | 279 | 0.0 | 1.6 | 0.00 | 0.05 | 0.00 | 96 | 1002.9 |
| 20260906011005 | 7 | 279 | 0.0 | 4.8 | 0.00 | 0.05 | 0.00 | 96 | 1002.8 |
| 20260906010503 | 7 | 274 | 0.0 | 4.8 | 0.00 | 0.05 | 0.00 | 96 | 1002.8 |
| 20260906005006 | 7 | 268 | 0.0 | 6.4 | 0.00 | 0.05 | 0.00 | 96 | 1002.7 |
| 20260906004005 | 7 | 302 | 0.0 | 6.4 | 0.00 | 0.05 | 0.00 | 96 | 1002.6 |
| 20260906003005 | 7 | 302 | 0.0 | 3.2 | 0.00 | 0.05 | 0.00 | 95 | 1002.6 |
| 20260906002503 | 7 | 303 | 0.0 | 3.2 | 0.00 | 0.05 | 0.00 | 95 | 1002.6 |
| 20260906002005 | 7 | 302 | 0.0 | 3.2 | 0.00 | 0.05 | 0.00 | 95 | 1002.5 |
| 20260906001005 | 7 | 303 | 0.0 | 3.2 | 0.00 | 0.05 | 0.00 | 95 | 1002.5 |
| 20260906000503 | 7 | 304 | 0.0 | 3.2 | 0.00 | 0.05 | 0.00 | 95 | 1002.5 |
| 20260906000005 | 7 | 304 | 0.0 | 3.2 | 0.00 | 0.05 | 0.00 | 95 | 1002.4 |
| 20260905235504 | 7 | 0 | 0.0 | 0.0 | 0.00 | 0.05 | 0.00 | 94 | 1002.5 |
| 20260905235003 | 7 | 0 | 0.0 | 0.0 | 0.00 | 0.05 | 0.00 | 95 | 1002.4 |
| 20260905234505 | 7 | 278 | 0.0 | 3.2 | 0.00 | 0.05 | 0.00 | 95 | 1002.5 |
| 20260905234003 | 7 | 278 | 0.0 | 6.4 | 0.00 | 0.05 | 0.00 | 95 | 1002.5 |
| 20260905233505 | 8 | 278 | 1.6 | 6.4 | 0.00 | 0.05 | 0.00 | 95 | 1002.4 |
| 20260905233004 | 8 | 278 | 0.0 | 3.2 | 0.00 | 0.05 | 0.00 | 95 | 1002.3 |
| 20260905232505 | 8 | 278 | 0.0 | 1.6 | 0.00 | 0.05 | 0.00 | 95 | 1002.3 |
| 20260905232003 | 8 | 277 | 0.0 | 3.2 | 0.00 | 0.05 | 0.00 | 95 | 1002.3 |
| 20260905231505 | 8 | 275 | 0.0 | 4.8 | 0.00 | 0.05 | 0.00 | 95 | 1002.3 |
| 20260905231004 | 8 | 263 | 0.0 | 4.8 | 0.00 | 0.05 | 0.00 | 95 | 1002.3 |
| 20260905230507 | 8 | 247 | 1.6 | 4.8 | 0.00 | 0.05 | 0.00 | 95 | 1002.3 |
| 20260905230004 | 8 | 251 | 1.6 | 4.8 | 0.00 | 0.05 | 0.00 | 95 | 1002.2 |
| 20260905225505 | 8 | 5 | 0.0 | 3.2 | 0.00 | 0.05 | 0.00 | 95 | 1002.2 |
| 20260905225004 | 8 | 13 | 0.0 | 3.2 | 0.00 | 0.05 | 0.00 | 95 | 1002.2 |
| 20260905224005 | 8 | 13 | 0.0 | 3.2 | 0.00 | 0.05 | 0.00 | 95 | 1002.1 |
| 20260905223503 | 8 | 11 | 0.0 | 3.2 | 0.00 | 0.05 | 0.00 | 95 | 1002.1 |
| 20260905221505 | 8 | 307 | 1.6 | 11.3 | 0.00 | 0.05 | 0.00 | 95 | 1002.0 |
| 20260905220505 | 8 | 342 | 0.0 | 3.2 | 0.00 | 0.05 | 0.00 | 94 | 1001.9 |
| 20260905220004 | 8 | 337 | 0.0 | 4.8 | 0.00 | 0.05 | 0.00 | 94 | 1001.9 |
| 20260905215505 | 8 | 321 | 1.6 | 4.8 | 0.00 | 0.05 | 0.00 | 94 | 1001.9 |
| 20260905215004 | 8 | 341 | 1.6 | 8.0 | 0.00 | 0.05 | 0.00 | 94 | 1001.9 |
| 20260905214003 | 8 | 1 | 1.6 | 6.4 | 0.00 | 0.05 | 0.00 | 94 | 1001.8 |
| 20260905213503 | 8 | 353 | 1.6 | 8.0 | 0.00 | 0.05 | 0.00 | 94 | 1001.8 |
| 20260905212504 | 8 | 3 | 1.6 | 6.4 | 0.00 | 0.05 | 0.00 | 93 | 1001.7 |
| 20260905211505 | 8 | 354 | 1.6 | 11.3 | 0.00 | 0.05 | 0.00 | 93 | 1001.6 |
| 20260905211004 | 8 | 342 | 1.6 | 6.4 | 0.00 | 0.05 | 0.00 | 93 | 1001.5 |
| 20260905210505 | 8 | 340 | 1.6 | 6.4 | 0.00 | 0.05 | 0.00 | 93 | 1001.4 |
| 20260905205505 | 8 | 356 | 1.6 | 6.4 | 0.00 | 0.05 | 0.05 | 92 | 1001.4 |
| 20260905205004 | 8 | 339 | 1.6 | 16.1 | 0.00 | 0.05 | 0.05 | 93 | 1001.3 |
| 20260905204505 | 8 | 328 | 1.6 | 16.1 | 0.00 | 0.05 | 0.05 | 93 | 1001.2 |
| 20260905204004 | 8 | 331 | 1.6 | 6.4 | 0.00 | 0.05 | 0.05 | 93 | 1001.3 |
| 20260905203505 | 8 | 356 | 0.0 | 6.4 | 0.00 | 0.05 | 0.05 | 93 | 1001.2 |
| 20260905203003 | 8 | 356 | 1.6 | 6.4 | 0.00 | 0.05 | 0.05 | 93 | 1001.1 |
| 20260905202505 | 8 | 345 | 1.6 | 6.4 | 0.00 | 0.05 | 0.05 | 93 | 1001.1 |
| 20260905201505 | 8 | 332 | 1.6 | 6.4 | 0.00 | 0.05 | 0.05 | 93 | 1001.0 |
| 20260905201003 | 8 | 336 | 0.0 | 4.8 | 0.00 | 0.05 | 0.05 | 93 | 1001.0 |
| 20260905200505 | 8 | 307 | 0.0 | 3.2 | 0.00 | 0.05 | 0.05 | 92 | 1001.0 |
| 20260905200004 | 8 | 299 | 0.0 | 3.2 | 0.00 | 0.05 | 0.05 | 92 | 1000.9 |
| 20260905195505 | 8 | 297 | 0.0 | 3.2 | 0.00 | 0.05 | 0.05 | 92 | 1000.9 |
| 20260905194505 | 8 | 338 | 0.0 | 4.8 | 0.00 | 0.05 | 0.05 | 92 | 1000.8 |
| 20260905194004 | 8 | 331 | 1.6 | 6.4 | 0.00 | 0.05 | 0.05 | 92 | 1000.7 |
| 20260905193506 | 8 | 339 | 1.6 | 6.4 | 0.00 | 0.05 | 0.05 | 91 | 1000.7 |
| 20260905193004 | 8 | 349 | 0.0 | 3.2 | 0.00 | 0.05 | 0.05 | 92 | 1000.6 |
| 20260905192505 | 8 | 323 | 0.0 | 3.2 | 0.00 | 0.05 | 0.05 | 91 | 1000.6 |
| 20260905192003 | 8 | 335 | 0.0 | 3.2 | 0.00 | 0.05 | 0.05 | 91 | 1000.6 |
| 20260905191505 | 8 | 6 | 1.6 | 4.8 | 0.00 | 0.05 | 0.05 | 92 | 1000.5 |
| 20260905191004 | 8 | 17 | 1.6 | 4.8 | 0.00 | 0.05 | 0.05 | 92 | 1000.5 |
| 20260905190505 | 8 | 9 | 1.6 | 4.8 | 0.00 | 0.05 | 0.05 | 92 | 1000.5 |
| 20260905190004 | 8 | 3 | 0.0 | 4.8 | 0.00 | 0.05 | 0.05 | 92 | 1000.5 |
| 20260905185505 | 8 | 6 | 1.6 | 11.3 | 0.00 | 0.05 | 0.05 | 91 | 1000.3 |
| 20260905184005 | 8 | 1 | 1.6 | 11.3 | 0.00 | 0.05 | 0.05 | 91 | 1000.3 |
| 20260905183504 | 8 | 9 | 1.6 | 11.3 | 0.00 | 0.05 | 0.05 | 91 | 1000.3 |
| 20260905183005 | 8 | 7 | 1.6 | 8.0 | 0.00 | 0.05 | 0.05 | 91 | 1000.2 |
| 20260905182504 | 8 | 9 | 3.2 | 11.3 | 0.00 | 0.05 | 0.05 | 91 | 1000.2 |
| 20260905181504 | 8 | 346 | 1.6 | 6.4 | 0.00 | 0.05 | 0.05 | 91 | 1000.1 |
| 20260905181005 | 9 | 3 | 1.6 | 6.4 | 0.00 | 0.05 | 0.05 | 91 | 1000.1 |
| 20260905180504 | 9 | 5 | 1.6 | 8.0 | 0.00 | 0.05 | 0.05 | 91 | 1000.0 |
| 20260905180005 | 9 | 356 | 1.6 | 8.0 | 0.00 | 0.05 | 0.05 | 91 | 1000.0 |
| 20260905175504 | 9 | 12 | 0.0 | 6.4 | 0.00 | 0.05 | 0.05 | 91 | 1000.0 |
| 20260905175006 | 9 | 25 | 0.0 | 4.8 | 0.00 | 0.05 | 0.05 | 91 | 1000.0 |
| 20260905174504 | 9 | 22 | 1.6 | 8.0 | 0.00 | 0.05 | 0.05 | 90 | 999.9 |
| 20260905174005 | 9 | 12 | 1.6 | 8.0 | 0.00 | 0.05 | 0.05 | 90 | 999.8 |
| 20260905173503 | 9 | 9 | 1.6 | 8.0 | 0.00 | 0.05 | 0.05 | 89 | 999.7 |
| 20260905173004 | 9 | 8 | 1.6 | 6.4 | 0.00 | 0.05 | 0.05 | 89 | 999.7 |
| 20260905172505 | 9 | 10 | 0.0 | 4.8 | 0.00 | 0.05 | 0.05 | 89 | 999.7 |
| 20260905172004 | 9 | 23 | 1.6 | 4.8 | 0.00 | 0.05 | 0.05 | 89 | 999.6 |
| 20260905171505 | 9 | 27 | 1.6 | 8.0 | 0.00 | 0.05 | 0.05 | 89 | 999.5 |
| 20260905170505 | 9 | 13 | 3.2 | 17.7 | 0.00 | 0.05 | 0.05 | 88 | 999.5 |
| 20260905170004 | 10 | 11 | 3.2 | 17.7 | 0.00 | 0.05 | 0.05 | 87 | 999.3 |
| 20260905165505 | 10 | 14 | 3.2 | 12.9 | 0.00 | 0.05 | 0.05 | 87 | 999.3 |
| 20260905165004 | 10 | 12 | 3.2 | 19.3 | 0.00 | 0.05 | 0.05 | 86 | 999.2 |
| 20260905164505 | 10 | 7 | 4.8 | 20.9 | 0.00 | 0.05 | 0.05 | 86 | 999.2 |
| 20260905164004 | 10 | 9 | 4.8 | 20.9 | 0.00 | 0.05 | 0.05 | 86 | 999.2 |
| 20260905163505 | 10 | 9 | 3.2 | 12.9 | 0.00 | 0.05 | 0.05 | 87 | 999.1 |
| 20260905162505 | 10 | 356 | 3.2 | 12.9 | 0.00 | 0.05 | 0.05 | 86 | 999.0 |
| 20260905162004 | 10 | 359 | 4.8 | 12.9 | 0.00 | 0.05 | 0.05 | 86 | 998.9 |
| 20260905161505 | 10 | 354 | 3.2 | 12.9 | 0.00 | 0.05 | 0.05 | 85 | 998.9 |
| 20260905161004 | 10 | 351 | 3.2 | 16.1 | 0.00 | 0.05 | 0.05 | 85 | 998.8 |
| 20260905160005 | 11 | 355 | 3.2 | 12.9 | 0.00 | 0.05 | 0.05 | 84 | 998.7 |
| 20260905155504 | 11 | 10 | 4.8 | 14.5 | 0.00 | 0.05 | 0.05 | 83 | 998.6 |
| 20260905155005 | 11 | 6 | 4.8 | 16.1 | 0.00 | 0.05 | 0.05 | 82 | 998.6 |
| 20260905154504 | 11 | 1 | 4.8 | 22.5 | 0.00 | 0.05 | 0.05 | 81 | 998.5 |
| 20260905154006 | 11 | 5 | 6.4 | 22.5 | 0.00 | 0.05 | 0.05 | 81 | 998.4 |
| 20260905153005 | 12 | 14 | 6.4 | 19.3 | 0.00 | 0.05 | 0.05 | 78 | 998.2 |
| 20260905152504 | 12 | 9 | 6.4 | 19.3 | 0.00 | 0.05 | 0.05 | 78 | 998.2 |
| 20260905152005 | 12 | 7 | 6.4 | 19.3 | 0.00 | 0.05 | 0.05 | 79 | 998.2 |
| 20260905151504 | 12 | 10 | 4.8 | 16.1 | 0.00 | 0.05 | 0.05 | 80 | 998.2 |
| 20260905151005 | 11 | 3 | 3.2 | 12.9 | 0.00 | 0.05 | 0.05 | 83 | 998.1 |
| 20260905150504 | 11 | 5 | 3.2 | 14.5 | 0.00 | 0.05 | 0.05 | 86 | 998.0 |
| 20260905150005 | 11 | 8 | 4.8 | 14.5 | 0.00 | 0.05 | 0.05 | 86 | 998.0 |
| 20260905145504 | 11 | 9 | 3.2 | 14.5 | 0.00 | 0.05 | 0.05 | 85 | 998.0 |
| 20260905145005 | 11 | 16 | 3.2 | 12.9 | 0.00 | 0.05 | 0.05 | 85 | 997.9 |
| 20260905144504 | 11 | 17 | 3.2 | 11.3 | 0.00 | 0.05 | 0.05 | 85 | 997.8 |
| 20260905144005 | 11 | 12 | 6.4 | 19.3 | 0.00 | 0.05 | 0.05 | 85 | 997.8 |
| 20260905143504 | 11 | 6 | 6.4 | 19.3 | 0.00 | 0.05 | 0.05 | 85 | 997.7 |
| 20260905143005 | 12 | 353 | 4.8 | 16.1 | 0.00 | 0.05 | 0.05 | 84 | 997.7 |
| 20260905142504 | 12 | 340 | 3.2 | 14.5 | 0.00 | 0.05 | 0.05 | 84 | 997.5 |
| 20260905142005 | 12 | 327 | 4.8 | 16.1 | 0.00 | 0.05 | 0.05 | 84 | 997.5 |
| 20260905141505 | 12 | 333 | 3.2 | 16.1 | 0.00 | 0.05 | 0.05 | 84 | 997.5 |
| 20260905141004 | 12 | 351 | 3.2 | 19.3 | 0.00 | 0.05 | 0.05 | 84 | 997.4 |
| 20260905140505 | 11 | 352 | 4.8 | 19.3 | 0.00 | 0.05 | 0.05 | 84 | 997.3 |
| 20260905140004 | 12 | 5 | 4.8 | 16.1 | 0.00 | 0.05 | 0.05 | 83 | 997.3 |
| 20260905135004 | 12 | 358 | 4.8 | 17.7 | 0.00 | 0.05 | 0.05 | 82 | 997.1 |
| 20260905134505 | 12 | 357 | 4.8 | 17.7 | 0.00 | 0.05 | 0.05 | 82 | 997.1 |
| 20260905134004 | 12 | 5 | 4.8 | 17.7 | 0.00 | 0.05 | 0.05 | 83 | 997.0 |
| 20260905133505 | 12 | 8 | 3.2 | 16.1 | 0.00 | 0.05 | 0.05 | 83 | 997.0 |
| 20260905133004 | 12 | 1 | 3.2 | 17.7 | 0.00 | 0.05 | 0.05 | 83 | 997.0 |
| 20260905132505 | 12 | 359 | 4.8 | 17.7 | 0.00 | 0.05 | 0.05 | 83 | 996.9 |
| 20260905132004 | 12 | 4 | 4.8 | 11.3 | 0.00 | 0.05 | 0.05 | 85 | 996.9 |
| 20260905131505 | 12 | 2 | 4.8 | 16.1 | 0.00 | 0.05 | 0.05 | 86 | 996.8 |
| 20260905131004 | 12 | 350 | 3.2 | 16.1 | 0.00 | 0.05 | 0.05 | 87 | 996.8 |
| 20260905130505 | 12 | 350 | 3.2 | 14.5 | 0.00 | 0.05 | 0.05 | 87 | 996.7 |
| 20260905130004 | 12 | 6 | 3.2 | 14.5 | 0.00 | 0.05 | 0.05 | 86 | 996.7 |
| 20260905125505 | 12 | 1 | 4.8 | 19.3 | 0.00 | 0.05 | 0.05 | 85 | 996.6 |
| 20260905125004 | 13 | 358 | 4.8 | 19.3 | 0.00 | 0.05 | 0.05 | 82 | 996.6 |
| 20260905124004 | 13 | 5 | 4.8 | 17.7 | 0.00 | 0.05 | 0.05 | 81 | 996.3 |
| 20260905123505 | 13 | 4 | 4.8 | 17.7 | 0.00 | 0.05 | 0.05 | 82 | 996.3 |
| 20260905123004 | 13 | 339 | 3.2 | 16.1 | 0.00 | 0.05 | 0.05 | 82 | 996.3 |
| 20260905122505 | 13 | 343 | 3.2 | 16.1 | 0.00 | 0.05 | 0.05 | 83 | 996.2 |
| 20260905122004 | 13 | 3 | 4.8 | 14.5 | 0.00 | 0.05 | 0.05 | 83 | 996.2 |
| 20260905121505 | 13 | 1 | 4.8 | 12.9 | 0.00 | 0.05 | 0.05 | 83 | 996.1 |
| 20260905121004 | 13 | 356 | 3.2 | 12.9 | 0.00 | 0.05 | 0.05 | 83 | 996.0 |
| 20260905120505 | 13 | 334 | 3.2 | 16.1 | 0.00 | 0.05 | 0.05 | 83 | 995.9 |
| 20260905120004 | 13 | 307 | 3.2 | 16.1 | 0.00 | 0.05 | 0.05 | 81 | 995.8 |
| 20260905115505 | 14 | 328 | 3.2 | 11.3 | 0.00 | 0.05 | 0.05 | 78 | 995.8 |
| 20260905115004 | 13 | 4 | 4.8 | 17.7 | 0.00 | 0.05 | 0.05 | 80 | 995.7 |
| 20260905114504 | 13 | 3 | 4.8 | 17.7 | 0.00 | 0.05 | 0.05 | 79 | 995.7 |
| 20260905114005 | 13 | 350 | 4.8 | 14.5 | 0.00 | 0.05 | 0.05 | 80 | 995.7 |
| 20260905113504 | 13 | 359 | 6.4 | 19.3 | 0.00 | 0.05 | 0.05 | 80 | 995.7 |
| 20260905113005 | 13 | 2 | 6.4 | 19.3 | 0.00 | 0.05 | 0.05 | 79 | 995.7 |
| 20260905112504 | 14 | 347 | 4.8 | 16.1 | 0.00 | 0.05 | 0.05 | 80 | 995.6 |
| 20260905112005 | 13 | 324 | 3.2 | 14.5 | 0.00 | 0.05 | 0.05 | 83 | 995.4 |
| 20260905111504 | 13 | 328 | 3.2 | 14.5 | 0.00 | 0.05 | 0.05 | 82 | 995.4 |
| 20260905111005 | 13 | 12 | 1.6 | 6.4 | 0.00 | 0.05 | 0.05 | 83 | 995.3 |
| 20260905110504 | 13 | 4 | 4.8 | 16.1 | 0.00 | 0.05 | 0.05 | 84 | 995.2 |
| 20260905110005 | 13 | 353 | 4.8 | 16.1 | 0.00 | 0.05 | 0.05 | 84 | 995.3 |
| 20260905105504 | 13 | 353 | 4.8 | 14.5 | 0.00 | 0.05 | 0.05 | 86 | 995.3 |
| 20260905105007 | 13 | 7 | 4.8 | 17.7 | 0.00 | 0.05 | 0.05 | 87 | 995.3 |
| 20260905104504 | 12 | 8 | 6.4 | 17.7 | 0.00 | 0.05 | 0.05 | 85 | 995.3 |
| 20260905103504 | 13 | 9 | 6.4 | 17.7 | 0.00 | 0.05 | 0.05 | 87 | 995.1 |
| 20260905102004 | 13 | 3 | 4.8 | 16.1 | 0.00 | 0.05 | 0.05 | 87 | 995.0 |
| 20260905101505 | 13 | 2 | 4.8 | 22.5 | 0.00 | 0.05 | 0.05 | 87 | 995.0 |
| 20260905101004 | 13 | 10 | 4.8 | 22.5 | 0.00 | 0.05 | 0.05 | 89 | 994.9 |
| 20260905100004 | 13 | 3 | 8.0 | 29.0 | 0.00 | 0.05 | 0.05 | 89 | 994.7 |
| 20260905095505 | 13 | 356 | 4.8 | 29.0 | 0.00 | 0.05 | 0.05 | 91 | 994.6 |
| 20260905095004 | 13 | 346 | 3.2 | 8.0 | 0.00 | 0.05 | 0.05 | 93 | 994.6 |
| 20260905094505 | 12 | 354 | 4.8 | 14.5 | 0.00 | 0.05 | 0.05 | 93 | 994.5 |
| 20260905094004 | 12 | 7 | 3.2 | 14.5 | 0.00 | 0.05 | 0.05 | 93 | 994.5 |
| 20260905093505 | 12 | 3 | 3.2 | 8.0 | 0.00 | 0.05 | 0.05 | 94 | 994.5 |
| 20260905093004 | 12 | 337 | 1.6 | 9.7 | 0.03 | 0.05 | 0.05 | 93 | 994.4 |
| 20260905092505 | 12 | 331 | 1.6 | 9.7 | 0.05 | 0.05 | 0.05 | 93 | 994.4 |
| 20260905092004 | 12 | 328 | 3.2 | 14.5 | 0.05 | 0.05 | 0.05 | 93 | 994.3 |
| 20260905091505 | 12 | 343 | 4.8 | 20.9 | 0.05 | 0.05 | 0.05 | 93 | 994.3 |
| 20260905091004 | 12 | 5 | 3.2 | 20.9 | 0.05 | 0.05 | 0.05 | 95 | 994.2 |
| 20260905090506 | 12 | 3 | 3.2 | 14.5 | 0.05 | 0.05 | 0.05 | 95 | 994.2 |